Time;durP1;ratioP1;P1;durP2;ratioP2;P2;SDS_P1;SDS_P2;PMS_P1;PMS_P2;Temp;Humidity;BMP_temperature;BMP_pressure;BME280_temperature;BME280_humidity;BME280_pressure;Samples;Min_cycle;Max_cycle;Signal;HPM_P1;HPM_P2
2023/12/04 00:02:20;;;;;;;1.30;1.30;;;;;;;-5.54;85.83;97909.41;5001197;28;20036;-70
2023/12/04 00:04:51;;;;;;;1.20;1.20;;;;;;;-5.58;85.80;97913.09;5001516;28;20049;-71
2023/12/04 00:07:19;;;;;;;1.48;1.48;;;;;;;-5.64;85.66;97903.06;5000933;28;20042;-71
2023/12/04 00:09:47;;;;;;;1.25;1.25;;;;;;;-5.59;85.58;97903.59;5002338;28;20491;-70
2023/12/04 00:12:14;;;;;;;1.20;1.20;;;;;;;-5.61;85.41;97905.47;5002845;28;20042;-70
2023/12/04 00:14:42;;;;;;;1.95;1.95;;;;;;;-5.67;86.05;97908.41;5001907;28;20073;-70
2023/12/04 00:17:09;;;;;;;1.38;1.38;;;;;;;-5.67;86.16;97898.84;5000956;28;20052;-70
2023/12/04 00:19:37;;;;;;;1.50;1.50;;;;;;;-5.70;86.15;97903.38;5001040;28;20128;-70
2023/12/04 00:22:06;;;;;;;1.38;1.38;;;;;;;-5.68;85.58;97902.38;5001654;28;20045;-70
2023/12/04 00:24:34;;;;;;;1.27;1.27;;;;;;;-5.67;86.08;97883.25;5001452;28;20125;-71
2023/12/04 00:27:01;;;;;;;1.95;1.95;;;;;;;-5.73;85.80;97882.78;5000439;28;20038;-70
2023/12/04 00:29:29;;;;;;;0.50;0.50;;;;;;;-5.76;85.59;97888.16;5000428;28;20407;-71
2023/12/04 00:31:57;;;;;;;1.13;1.13;;;;;;;-5.79;85.78;97891.75;5000816;28;20084;-70
2023/12/04 00:34:25;;;;;;;1.38;1.38;;;;;;;-5.83;86.16;97885.06;5002862;28;20062;-70
2023/12/04 00:36:53;;;;;;;1.48;1.48;;;;;;;-5.78;85.79;97892.59;5001973;28;20073;-70
2023/12/04 00:39:22;;;;;;;1.23;1.23;;;;;;;-5.83;85.99;97882.47;5002783;28;20038;-70
2023/12/04 00:41:49;;;;;;;1.23;1.23;;;;;;;-5.79;86.04;97888.31;4999095;28;20129;-71
2023/12/04 00:44:17;;;;;;;1.33;1.33;;;;;;;-5.80;85.87;97894.44;4998785;28;20508;-70
2023/12/04 00:46:44;;;;;;;1.10;1.10;;;;;;;-5.78;86.00;97877.84;5014454;28;20045;-70
2023/12/04 00:49:12;;;;;;;1.30;1.30;;;;;;;-5.72;85.71;97880.09;5002084;28;20106;-70
2023/12/04 00:51:40;;;;;;;1.13;1.13;;;;;;;-5.71;85.78;97880.94;5002744;28;20038;-70
2023/12/04 00:54:08;;;;;;;0.95;0.95;;;;;;;-5.81;85.96;97882.38;5003479;28;20043;-71
2023/12/04 00:56:38;;;;;;;1.17;1.17;;;;;;;-5.77;86.07;97876.91;4999796;28;20052;-71
2023/12/04 00:59:06;;;;;;;1.00;1.00;;;;;;;-5.78;85.77;97875.22;4999617;28;20040;-71
2023/12/04 01:01:34;;;;;;;1.15;1.15;;;;;;;-5.80;85.99;97871.88;5000578;28;20050;-70
2023/12/04 01:04:01;;;;;;;1.27;1.27;;;;;;;-5.79;86.04;97863.16;5000914;28;20105;-70
2023/12/04 01:06:30;;;;;;;1.38;1.38;;;;;;;-5.72;85.64;97874.91;5001281;28;20042;-71
2023/12/04 01:08:57;;;;;;;1.30;1.30;;;;;;;-5.74;85.97;97874.16;4998836;28;20126;-72
2023/12/04 01:11:25;;;;;;;0.88;0.88;;;;;;;-5.72;85.90;97861.91;4999089;28;20522;-72
2023/12/04 01:13:54;;;;;;;1.15;1.15;;;;;;;-5.67;85.55;97853.84;5000561;28;20046;-70
2023/12/04 01:16:21;;;;;;;1.40;1.40;;;;;;;-5.68;85.66;97850.41;5000079;28;20574;-70
2023/12/04 01:18:49;;;;;;;1.10;1.10;;;;;;;-5.68;85.98;97845.19;4999192;28;20039;-71
2023/12/04 01:21:16;;;;;;;1.60;1.60;;;;;;;-5.64;85.78;97851.91;5000108;28;20045;-70
2023/12/04 01:23:44;;;;;;;1.30;1.30;;;;;;;-5.64;85.73;97859.72;5000661;28;20056;-70
2023/12/04 01:26:12;;;;;;;1.95;1.95;;;;;;;-5.65;86.10;97850.22;5000088;28;20045;-71
2023/12/04 01:28:39;;;;;;;1.50;1.50;;;;;;;-5.65;85.76;97849.41;4998306;28;20411;-70
2023/12/04 01:31:08;;;;;;;1.02;1.02;;;;;;;-5.66;86.12;97837.31;5000719;28;20487;-70
2023/12/04 01:33:36;;;;;;;1.10;1.10;;;;;;;-5.60;85.81;97842.16;4998494;28;20046;-70
2023/12/04 01:36:04;;;;;;;0.40;0.40;;;;;;;-5.65;85.48;97845.03;5001440;28;20443;-70
2023/12/04 01:38:32;;;;;;;0.95;0.95;;;;;;;-5.60;85.51;97829.16;5000261;28;20034;-70
2023/12/04 01:40:59;;;;;;;1.08;1.08;;;;;;;-5.59;84.93;97821.28;5000245;28;20050;-70
2023/12/04 01:43:28;;;;;;;1.30;1.30;;;;;;;-5.62;85.64;97821.47;5002471;28;20042;-70
2023/12/04 01:45:55;;;;;;;1.52;1.52;;;;;;;-5.62;85.60;97812.84;5001143;28;20053;-70
2023/12/04 01:48:25;;;;;;;1.38;1.38;;;;;;;-5.59;85.12;97805.69;5001614;28;20122;-70
2023/12/04 01:50:54;;;;;;;1.00;1.00;;;;;;;-5.57;85.21;97809.03;5000215;28;20107;-71
2023/12/04 01:53:21;;;;;;;1.10;1.10;;;;;;;-5.55;85.18;97799.38;4999374;28;20041;-71
2023/12/04 01:55:50;;;;;;;1.92;1.92;;;;;;;-5.51;84.96;97783.63;5001183;28;20046;-71
2023/12/04 01:58:17;;;;;;;1.15;1.15;;;;;;;-5.48;84.83;97778.22;5002339;28;20480;-71
2023/12/04 02:00:47;;;;;;;1.67;1.67;;;;;;;-5.45;84.22;97781.47;5004828;28;20038;-71
2023/12/04 02:03:15;;;;;;;1.00;1.00;;;;;;;-5.43;83.84;97786.59;5002182;28;20050;-71
2023/12/04 02:05:47;;;;;;;1.08;1.08;;;;;;;-5.47;83.52;97787.69;5000276;28;20042;-70
2023/12/04 02:08:14;;;;;;;0.90;0.90;;;;;;;-5.44;84.21;97797.91;5001991;28;20065;-70
2023/12/04 02:10:42;;;;;;;0.98;0.98;;;;;;;-5.48;83.99;97788.63;4999778;28;20034;-70
2023/12/04 02:13:10;;;;;;;1.85;1.85;;;;;;;-5.53;83.60;97786.31;5000407;28;20125;-70
2023/12/04 02:15:37;;;;;;;1.38;1.38;;;;;;;-5.55;83.82;97776.00;5000641;28;20085;-70
2023/12/04 02:18:05;;;;;;;1.52;1.52;;;;;;;-5.57;83.60;97777.00;4999903;28;20511;-70
2023/12/04 02:20:33;;;;;;;1.27;1.27;;;;;;;-5.61;83.33;97771.16;4998519;28;20109;-70
2023/12/04 02:23:03;;;;;;;1.40;1.40;;;;;;;-5.61;83.35;97767.72;4999214;28;20037;-70
2023/12/04 02:25:32;;;;;;;1.27;1.27;;;;;;;-5.61;83.40;97762.53;4999066;28;20124;-70
2023/12/04 02:28:06;;;;;;;1.02;1.02;;;;;;;-5.67;83.44;97762.88;5000479;28;20042;-69
2023/12/04 02:30:36;;;;;;;1.20;1.20;;;;;;;-5.64;83.12;97757.50;5000065;28;20042;-70
2023/12/04 02:33:06;;;;;;;1.27;1.27;;;;;;;-5.69;83.14;97744.78;5000020;28;20053;-70
2023/12/04 02:35:35;;;;;;;1.23;1.23;;;;;;;-5.72;83.46;97752.78;4999256;28;20081;-72
2023/12/04 02:38:03;;;;;;;1.70;1.70;;;;;;;-5.75;83.79;97750.34;5000385;28;20057;-70
2023/12/04 02:40:33;;;;;;;0.30;0.30;;;;;;;-5.74;83.06;97757.22;4999877;28;20454;-70
2023/12/04 02:43:01;;;;;;;1.55;1.55;;;;;;;-5.75;83.63;97741.72;4999857;28;20046;-73
2023/12/04 02:45:29;;;;;;;1.73;1.73;;;;;;;-5.74;83.11;97746.00;5000480;28;20109;-70
2023/12/04 02:47:56;;;;;;;0.43;0.43;;;;;;;-5.70;83.31;97750.06;4999248;28;20467;-70
2023/12/04 02:50:24;;;;;;;1.33;1.33;;;;;;;-5.72;83.30;97738.94;4999588;28;20499;-71
2023/12/04 02:52:51;;;;;;;1.50;1.50;;;;;;;-5.75;82.98;97733.91;5000101;28;20125;-70
2023/12/04 02:55:19;;;;;;;1.58;1.58;;;;;;;-5.76;83.13;97746.06;5000511;28;20407;-70
2023/12/04 02:57:48;;;;;;;1.42;1.42;;;;;;;-5.76;83.03;97732.25;5001696;28;20258;-70
2023/12/04 03:00:17;;;;;;;1.13;1.13;;;;;;;-5.78;82.55;97729.72;5002574;28;20058;-70
2023/12/04 03:02:44;;;;;;;0.98;0.98;;;;;;;-5.83;83.20;97733.53;5004328;28;20130;-70
2023/12/04 03:05:12;;;;;;;1.20;1.20;;;;;;;-5.83;82.79;97736.13;5003414;28;20045;-70
2023/12/04 03:07:40;;;;;;;0.95;0.95;;;;;;;-5.83;83.12;97720.56;4999759;28;20052;-70
2023/12/04 03:10:08;;;;;;;0.63;0.63;;;;;;;-5.81;82.80;97721.31;4999287;28;20586;-70
2023/12/04 03:12:36;;;;;;;1.30;1.30;;;;;;;-5.80;82.59;97725.53;4999330;28;20074;-69
2023/12/04 03:15:06;;;;;;;1.30;1.30;;;;;;;-5.83;82.79;97728.34;4999481;28;20455;-70
2023/12/04 03:17:33;;;;;;;1.38;1.38;;;;;;;-5.83;83.10;97721.38;4998885;28;20034;-70
2023/12/04 03:20:01;;;;;;;0.85;0.85;;;;;;;-5.82;82.52;97715.25;5002562;28;20042;-70
2023/12/04 03:22:28;;;;;;;1.30;1.30;;;;;;;-5.81;82.74;97721.31;5002714;28;20514;-70
2023/12/04 03:24:56;;;;;;;1.05;1.05;;;;;;;-5.87;82.69;97716.44;5002538;28;20052;-70
2023/12/04 03:27:24;;;;;;;0.60;0.60;;;;;;;-5.85;82.69;97709.41;5002158;28;20447;-70
2023/12/04 03:29:52;;;;;;;1.20;1.20;;;;;;;-5.84;82.74;97717.13;5001600;28;20037;-69
2023/12/04 03:32:21;;;;;;;1.20;1.20;;;;;;;-5.93;83.13;97709.91;5002601;28;20419;-69
2023/12/04 03:34:48;;;;;;;0.88;0.88;;;;;;;-5.90;83.33;97712.28;5003005;28;20117;-70
2023/12/04 03:37:16;;;;;;;1.38;1.38;;;;;;;-5.90;83.30;97703.66;5003786;28;20057;-70
2023/12/04 03:39:43;;;;;;;1.35;1.35;;;;;;;-5.94;83.58;97701.28;5002313;28;20528;-69
2023/12/04 03:42:11;;;;;;;1.25;1.25;;;;;;;-5.93;82.88;97707.31;5003424;28;20121;-69
2023/12/04 03:44:38;;;;;;;1.13;1.13;;;;;;;-5.94;83.62;97703.03;5002488;28;20061;-70
2023/12/04 03:47:06;;;;;;;0.30;0.30;;;;;;;-5.86;83.43;97692.16;5002541;28;20399;-70
2023/12/04 03:49:35;;;;;;;1.75;1.75;;;;;;;-5.84;83.11;97688.53;5001617;28;20053;-71
2023/12/04 03:52:03;;;;;;;1.23;1.23;;;;;;;-5.87;82.58;97677.47;5003038;28;20237;-70
2023/12/04 03:54:30;;;;;;;1.23;1.23;;;;;;;-5.81;82.95;97688.34;5000255;28;20054;-70
2023/12/04 03:56:58;;;;;;;0.90;0.90;;;;;;;-5.81;83.20;97683.13;5001966;28;20078;-70
2023/12/04 03:59:25;;;;;;;1.13;1.13;;;;;;;-5.80;82.33;97678.78;4999815;28;20077;-70
2023/12/04 04:01:53;;;;;;;0.80;0.80;;;;;;;-5.78;82.76;97682.13;5002088;28;20129;-69
2023/12/04 04:04:21;;;;;;;0.45;0.45;;;;;;;-5.75;82.48;97667.19;5000428;28;20410;-70
2023/12/04 04:06:50;;;;;;;1.33;1.33;;;;;;;-5.75;82.25;97669.78;5016275;28;20054;-70
2023/12/04 04:09:19;;;;;;;1.25;1.25;;;;;;;-5.77;82.82;97650.84;5001665;28;20121;-70
2023/12/04 04:11:48;;;;;;;1.33;1.33;;;;;;;-5.70;82.51;97646.09;5000936;28;20049;-70
2023/12/04 04:14:15;;;;;;;1.30;1.30;;;;;;;-5.73;82.48;97644.56;4999585;28;20510;-70
2023/12/04 04:16:43;;;;;;;1.20;1.20;;;;;;;-5.71;82.54;97649.66;5002119;28;20042;-70
2023/12/04 04:19:10;;;;;;;1.00;1.00;;;;;;;-5.74;82.29;97645.47;5000658;28;20045;-70
2023/12/04 04:21:41;;;;;;;1.38;1.38;;;;;;;-5.76;82.93;97642.13;5000550;28;20050;-70
2023/12/04 04:24:10;;;;;;;0.98;0.98;;;;;;;-5.69;82.85;97645.19;5000273;28;20158;-70
2023/12/04 04:26:37;;;;;;;1.50;1.50;;;;;;;-5.70;82.34;97643.50;5001033;28;20053;-70
2023/12/04 04:29:05;;;;;;;1.02;1.02;;;;;;;-5.68;82.60;97641.66;5000226;28;20050;-70
2023/12/04 04:31:33;;;;;;;1.15;1.15;;;;;;;-5.72;82.88;97640.19;4999800;28;20053;-70
2023/12/04 04:34:00;;;;;;;1.08;1.08;;;;;;;-5.64;82.61;97627.56;5000927;28;20549;-70
2023/12/04 04:36:28;;;;;;;1.25;1.25;;;;;;;-5.69;82.48;97627.00;5001098;28;20050;-71
2023/12/04 04:38:56;;;;;;;1.33;1.33;;;;;;;-5.70;82.16;97630.50;5001604;28;20397;-71
2023/12/04 04:41:24;;;;;;;1.10;1.10;;;;;;;-5.67;81.85;97638.13;4999784;28;20034;-71
2023/12/04 04:43:53;;;;;;;1.48;1.48;;;;;;;-5.75;82.26;97635.19;4999480;28;20180;-71
2023/12/04 04:46:20;;;;;;;1.27;1.27;;;;;;;-5.73;82.60;97628.97;5000461;28;20054;-71
2023/12/04 04:48:48;;;;;;;1.17;1.17;;;;;;;-5.74;82.49;97649.84;5000597;28;20571;-71
2023/12/04 04:51:15;;;;;;;1.25;1.25;;;;;;;-5.71;82.00;97636.66;5000724;28;20069;-71
2023/12/04 04:53:43;;;;;;;1.08;1.08;;;;;;;-5.69;82.23;97637.38;5018917;23;20042;-71
2023/12/04 04:56:12;;;;;;;1.27;1.27;;;;;;;-5.71;81.96;97628.88;4990342;28;20073;-71
2023/12/04 04:58:41;;;;;;;1.10;1.10;;;;;;;-5.69;81.62;97625.22;4990799;28;20133;-70
2023/12/04 05:01:09;;;;;;;1.33;1.33;;;;;;;-5.67;81.44;97620.78;4990652;28;20054;-71
2023/12/04 05:03:36;;;;;;;1.20;1.20;;;;;;;-5.68;81.84;97626.06;4995478;28;20057;-70
2023/12/04 05:06:05;;;;;;;1.35;1.35;;;;;;;-5.69;81.68;97624.41;5010219;28;20570;-71
2023/12/04 05:08:32;;;;;;;0.13;0.13;;;;;;;-5.67;81.28;97614.75;5010409;28;20450;-71
2023/12/04 05:11:00;;;;;;;1.33;1.33;;;;;;;-5.63;80.95;97611.03;5011818;28;20038;-70
2023/12/04 05:13:28;;;;;;;0.93;0.93;;;;;;;-5.64;80.73;97607.59;5011507;28;20065;-69
2023/12/04 05:15:56;;;;;;;0.32;0.32;;;;;;;-5.63;80.74;97614.47;5011106;28;20482;-70
2023/12/04 05:18:24;;;;;;;2.08;2.08;;;;;;;-5.66;81.09;97601.66;5011480;28;20124;-71
2023/12/04 05:20:52;;;;;;;0.90;0.90;;;;;;;-5.67;81.03;97604.34;5009574;28;20037;-71
2023/12/04 05:23:19;;;;;;;1.15;1.15;;;;;;;-5.65;80.87;97600.75;5009400;28;20045;-71
2023/12/04 05:25:47;;;;;;;1.55;1.55;;;;;;;-5.62;81.18;97597.13;5010076;28;20046;-71
2023/12/04 05:28:17;;;;;;;0.40;0.40;;;;;;;-5.62;80.77;97597.97;5009967;28;20395;-70
2023/12/04 05:30:45;;;;;;;1.10;1.10;;;;;;;-5.63;80.55;97585.88;5010182;28;20076;-71
2023/12/04 05:33:14;;;;;;;1.38;1.38;;;;;;;-5.67;81.11;97593.97;5008720;28;20050;-70
2023/12/04 05:35:42;;;;;;;1.48;1.48;;;;;;;-5.65;80.92;97594.69;5010358;28;20058;-71
2023/12/04 05:38:09;;;;;;;1.58;1.58;;;;;;;-5.63;80.74;97588.50;5010646;28;20049;-70
2023/12/04 05:40:37;;;;;;;1.30;1.30;;;;;;;-5.62;80.26;97590.16;4990807;28;20118;-71
2023/12/04 05:43:05;;;;;;;1.15;1.15;;;;;;;-5.58;80.08;97576.03;5008303;28;20058;-71
2023/12/04 05:45:32;;;;;;;0.93;0.93;;;;;;;-5.57;80.36;97567.31;5011026;28;20073;-71
2023/12/04 05:48:00;;;;;;;0.95;0.95;;;;;;;-5.62;80.46;97577.16;5010254;28;20042;-71
2023/12/04 05:50:29;;;;;;;1.38;1.38;;;;;;;-5.59;80.33;97576.13;5011159;28;20053;-71
2023/12/04 05:52:57;;;;;;;1.75;1.75;;;;;;;-5.61;80.41;97575.41;5009451;28;20499;-70
2023/12/04 05:55:24;;;;;;;1.38;1.38;;;;;;;-5.61;80.23;97578.84;5012591;28;20042;-71
2023/12/04 05:57:52;;;;;;;1.15;1.15;;;;;;;-5.59;79.79;97576.94;5010774;28;20529;-72
2023/12/04 06:00:21;;;;;;;1.25;1.25;;;;;;;-5.58;80.09;97570.81;5012023;28;20041;-72
2023/12/04 06:02:53;;;;;;;1.20;1.20;;;;;;;-5.64;79.99;97567.78;5009356;28;20056;-73
2023/12/04 06:05:20;;;;;;;0.80;0.80;;;;;;;-5.53;79.83;97567.97;5011304;28;20069;-72
2023/12/04 06:07:49;;;;;;;1.02;1.02;;;;;;;-5.52;79.66;97555.78;5010212;28;20129;-72
2023/12/04 06:10:18;;;;;;;1.20;1.20;;;;;;;-5.56;79.23;97555.16;5010624;28;20046;-72
2023/12/04 06:12:46;;;;;;;1.05;1.05;;;;;;;-5.57;79.41;97554.31;5010838;28;20042;-72
2023/12/04 06:15:13;;;;;;;1.30;1.30;;;;;;;-5.57;79.36;97553.47;5009621;28;20122;-72
2023/12/04 06:17:41;;;;;;;1.25;1.25;;;;;;;-5.56;79.78;97548.19;5012106;28;20120;-72
2023/12/04 06:20:11;;;;;;;1.00;1.00;;;;;;;-5.52;79.49;97543.63;5009259;28;20045;-72
2023/12/04 06:22:39;;;;;;;1.05;1.05;;;;;;;-5.52;79.29;97540.19;4992657;28;20140;-72
2023/12/04 06:25:09;;;;;;;0.47;0.47;;;;;;;-5.55;79.14;97539.47;5007744;28;20624;-72
2023/12/04 06:27:38;;;;;;;0.85;0.85;;;;;;;-5.53;79.17;97526.38;5008497;28;20041;-70
2023/12/04 06:30:07;;;;;;;1.17;1.17;;;;;;;-5.52;79.46;97528.03;5009014;28;20081;-70
2023/12/04 06:32:35;;;;;;;1.13;1.13;;;;;;;-5.47;78.87;97531.16;5005617;28;20041;-73
2023/12/04 06:35:04;;;;;;;1.13;1.13;;;;;;;-5.47;78.86;97520.75;5007825;28;20046;-71
2023/12/04 06:37:32;;;;;;;0.80;0.80;;;;;;;-5.49;79.43;97524.38;5010206;28;20038;-70
2023/12/04 06:40:02;;;;;;;1.23;1.23;;;;;;;-5.45;79.09;97521.50;5007986;28;20076;-72
2023/12/04 06:42:31;;;;;;;1.25;1.25;;;;;;;-5.43;78.80;97517.06;5009551;28;20057;-70
2023/12/04 06:44:59;;;;;;;1.02;1.02;;;;;;;-5.38;78.65;97509.78;5009751;28;20045;-72
2023/12/04 06:47:29;;;;;;;1.00;1.00;;;;;;;-5.34;79.12;97519.06;5009835;28;20565;-70
2023/12/04 06:49:56;;;;;;;1.90;1.90;;;;;;;-5.31;79.09;97505.88;5010171;28;20506;-72
2023/12/04 06:52:24;;;;;;;1.35;1.35;;;;;;;-5.27;78.69;97501.28;5008436;28;20041;-72
2023/12/04 06:54:52;;;;;;;1.33;1.33;;;;;;;-5.19;78.38;97502.44;5012506;28;20048;-72
2023/12/04 06:57:19;;;;;;;1.20;1.20;;;;;;;-5.14;78.36;97499.56;5012942;28;20108;-70
2023/12/04 06:59:48;;;;;;;1.30;1.30;;;;;;;-5.11;78.27;97496.75;5012733;28;20390;-71
2023/12/04 07:02:16;;;;;;;1.40;1.40;;;;;;;-5.10;77.99;97497.59;5013252;28;20483;-70
2023/12/04 07:04:43;;;;;;;1.00;1.00;;;;;;;-5.13;77.80;97500.41;5012121;28;20068;-69
2023/12/04 07:07:12;;;;;;;1.23;1.23;;;;;;;-5.10;78.55;97495.00;4995616;28;20053;-72
2023/12/04 07:09:40;;;;;;;1.08;1.08;;;;;;;-5.06;78.00;97493.84;5013212;28;20052;-70
2023/12/04 07:12:07;;;;;;;1.00;1.00;;;;;;;-5.04;77.81;97495.41;5012916;28;20368;-69
2023/12/04 07:14:35;;;;;;;1.50;1.50;;;;;;;-5.00;77.51;97489.09;5012280;28;20038;-69
2023/12/04 07:17:04;;;;;;;1.15;1.15;;;;;;;-4.98;77.32;97486.38;5009275;28;20070;-72
2023/12/04 07:19:32;;;;;;;1.40;1.40;;;;;;;-4.95;77.45;97496.56;5012375;28;20132;-72
2023/12/04 07:22:00;;;;;;;1.20;1.20;;;;;;;-4.94;77.09;97493.88;5012614;28;20054;-70
2023/12/04 07:24:28;;;;;;;1.17;1.17;;;;;;;-4.86;77.51;97482.94;5014628;28;20072;-72
2023/12/04 07:26:55;;;;;;;1.10;1.10;;;;;;;-4.83;77.73;97495.75;5015801;28;20050;-72
2023/12/04 07:29:23;;;;;;;1.05;1.05;;;;;;;-4.79;76.92;97488.59;5012472;28;20053;-70
2023/12/04 07:31:52;;;;;;;1.17;1.17;;;;;;;-4.73;77.11;97488.19;5012179;28;20144;-70
2023/12/04 07:34:21;;;;;;;0.30;0.30;;;;;;;-4.68;76.79;97478.31;5011387;28;20688;-72
2023/12/04 07:36:49;;;;;;;2.17;2.10;;;;;;;-4.68;76.99;97478.31;5012097;28;20042;-72
2023/12/04 07:39:17;;;;;;;1.10;1.10;;;;;;;-4.63;76.76;97481.41;5014791;28;20073;-70
2023/12/04 07:41:44;;;;;;;0.82;0.82;;;;;;;-4.55;76.31;97481.72;5013071;28;20034;-71
2023/12/04 07:44:12;;;;;;;0.88;0.88;;;;;;;-4.52;76.46;97478.91;5011355;28;20082;-71
2023/12/04 07:46:39;;;;;;;1.38;1.38;;;;;;;-4.45;75.72;97481.00;5011955;28;20042;-72
2023/12/04 07:49:07;;;;;;;1.10;1.10;;;;;;;-4.44;76.38;97487.03;5013108;28;20399;-71
2023/12/04 07:51:36;;;;;;;1.23;1.23;;;;;;;-4.40;76.36;97478.09;5010233;28;20198;-71
2023/12/04 07:54:05;;;;;;;1.10;1.10;;;;;;;-4.33;76.17;97475.88;5011998;28;20126;-72
2023/12/04 07:56:32;;;;;;;1.38;1.38;;;;;;;-4.33;75.70;97479.31;5012135;28;20041;-69
2023/12/04 07:59:00;;;;;;;1.27;1.27;;;;;;;-4.25;76.07;97473.56;5009004;28;20049;-71
2023/12/04 08:01:26;;;;;;;0.85;0.85;;;;;;;-4.26;76.20;97475.38;4993707;28;20052;-69
2023/12/04 08:03:54;;;;;;;1.25;1.25;;;;;;;-4.21;75.84;97470.66;5011588;28;20119;-72
2023/12/04 08:06:23;;;;;;;1.45;1.45;;;;;;;-4.18;75.81;97467.84;5011400;28;20125;-72
2023/12/04 08:08:52;;;;;;;1.02;1.02;;;;;;;-4.16;76.55;97471.19;5011028;28;20561;-69
2023/12/04 08:11:20;;;;;;;1.40;1.40;;;;;;;-4.16;76.03;97462.53;5010138;28;20052;-72
2023/12/04 08:13:47;;;;;;;0.95;0.95;;;;;;;-4.05;75.81;97464.41;5012330;28;20359;-72
2023/12/04 08:16:15;;;;;;;1.30;1.30;;;;;;;-4.02;75.81;97456.34;5011883;28;20053;-69
2023/12/04 08:18:44;;;;;;;1.27;1.27;;;;;;;-3.96;75.73;97453.31;5014051;28;20537;-69
2023/12/04 08:21:12;;;;;;;1.00;1.00;;;;;;;-3.93;75.07;97442.66;5012124;28;20049;-70
2023/12/04 08:23:40;;;;;;;1.20;1.20;;;;;;;-3.92;75.47;97442.56;5010804;28;20045;-71
2023/12/04 08:26:09;;;;;;;1.13;1.13;;;;;;;-3.89;75.19;97434.53;5010138;28;20399;-71
2023/12/04 08:28:41;;;;;;;1.13;1.13;;;;;;;-3.82;75.07;97437.50;5010480;28;20499;-69
2023/12/04 08:31:09;;;;;;;1.38;1.38;;;;;;;-3.86;75.11;97433.47;5011358;28;20061;-69
2023/12/04 08:33:37;;;;;;;1.13;1.13;;;;;;;-3.84;74.92;97429.78;5010374;28;20037;-71
2023/12/04 08:36:06;;;;;;;0.20;0.20;;;;;;;-3.78;75.04;97425.94;5011384;28;20509;-71
2023/12/04 08:38:33;;;;;;;0.98;0.98;;;;;;;-3.75;74.48;97423.94;5011027;28;20050;-71
2023/12/04 08:41:01;;;;;;;0.90;0.90;;;;;;;-3.70;75.52;97423.59;5009547;28;20108;-72
2023/12/04 08:43:30;;;;;;;1.17;1.17;;;;;;;-3.65;75.55;97428.50;5010845;28;20096;-71
2023/12/04 08:45:58;;;;;;;1.33;1.33;;;;;;;-3.55;74.99;97430.31;5011132;28;20487;-71
2023/12/04 08:48:26;;;;;;;1.35;1.35;;;;;;;-3.44;74.56;97421.72;5010848;28;20125;-70
2023/12/04 08:50:53;;;;;;;1.17;1.17;;;;;;;-3.42;74.71;97425.03;5011068;28;20045;-71
2023/12/04 08:53:21;;;;;;;0.80;0.80;;;;;;;-3.39;74.15;97424.81;5010492;28;20037;-71
2023/12/04 08:55:48;;;;;;;0.40;0.40;;;;;;;-3.29;73.93;97427.56;5011173;28;20454;-71
2023/12/04 08:58:16;;;;;;;1.05;1.05;;;;;;;-3.35;74.16;97424.47;5009238;28;20124;-70
2023/12/04 09:00:45;;;;;;;1.30;1.25;;;;;;;-3.32;74.44;97433.84;5011425;28;20112;-69
2023/12/04 09:03:13;;;;;;;0.95;0.95;;;;;;;-3.29;73.93;97424.97;5010643;28;20061;-71
2023/12/04 09:05:54;;;;;;;1.27;1.27;;;;;;;-3.22;73.55;97431.41;5011210;28;20054;-69
2023/12/04 09:08:23;;;;;;;1.08;1.08;;;;;;;-3.17;73.22;97437.09;5010825;28;20042;-71
2023/12/04 09:11:04;;;;;;;1.02;1.02;;;;;;;-3.12;73.27;97438.44;5009691;28;20081;-72
2023/12/04 09:13:49;;;;;;;1.30;1.30;;;;;;;-3.07;72.86;97430.25;5010368;28;20042;-69
2023/12/04 09:16:18;;;;;;;1.05;1.05;;;;;;;-3.03;73.05;97418.66;5010185;28;20525;-72
2023/12/04 09:18:46;;;;;;;0.88;0.88;;;;;;;-2.95;72.75;97429.34;5010785;28;20065;-70
2023/12/04 09:21:14;;;;;;;0.95;0.95;;;;;;;-2.98;72.73;97430.41;5010606;28;20046;-70
2023/12/04 09:23:42;;;;;;;1.60;1.55;;;;;;;-2.89;72.45;97426.25;5009297;28;20058;-70
2023/12/04 09:26:09;;;;;;;1.15;1.15;;;;;;;-2.88;72.57;97422.69;5010197;28;20125;-70
2023/12/04 09:28:37;;;;;;;0.85;0.85;;;;;;;-2.80;72.38;97430.78;5010021;28;20041;-70
2023/12/04 09:31:05;;;;;;;1.13;1.13;;;;;;;-2.80;72.43;97416.94;5010486;28;20499;-70
2023/12/04 09:33:34;;;;;;;1.02;1.02;;;;;;;-2.81;72.38;97420.47;5010248;28;20041;-70
2023/12/04 09:36:01;;;;;;;1.10;1.10;;;;;;;-2.84;72.35;97410.25;5010428;28;20057;-71
2023/12/04 09:38:29;;;;;;;0.30;0.30;;;;;;;-2.83;72.20;97406.69;5010688;28;20494;-70
2023/12/04 09:41:01;;;;;;;1.42;1.42;;;;;;;-2.81;72.35;97415.25;5009444;28;20064;-70
2023/12/04 09:43:29;;;;;;;1.02;1.02;;;;;;;-2.81;72.14;97405.66;5010360;28;20048;-69
2023/12/04 09:45:58;;;;;;;1.20;1.20;;;;;;;-2.78;72.20;97428.06;5010499;28;20060;-71
2023/12/04 09:48:27;;;;;;;0.40;0.40;;;;;;;-2.80;72.70;97425.56;5011219;28;20407;-70
2023/12/04 09:50:57;;;;;;;0.88;0.88;;;;;;;-2.79;72.69;97422.00;5009257;28;20077;-70
2023/12/04 09:53:27;;;;;;;1.13;1.13;;;;;;;-2.80;72.91;97417.72;5009589;28;20045;-70
2023/12/04 09:55:58;;;;;;;0.95;0.95;;;;;;;-2.75;72.20;97415.59;5010606;28;20133;-70
2023/12/04 09:58:29;;;;;;;1.48;1.48;;;;;;;-2.73;72.25;97428.56;5010018;28;20046;-72
2023/12/04 10:00:58;;;;;;;1.05;1.05;;;;;;;-2.76;72.72;97413.94;5009843;28;20133;-70
2023/12/04 10:03:25;;;;;;;1.00;1.00;;;;;;;-2.73;72.73;97410.28;5008290;28;20495;-70
2023/12/04 10:05:55;;;;;;;1.23;1.23;;;;;;;-2.71;73.58;97408.38;5010266;28;20053;-69
2023/12/04 10:08:24;;;;;;;1.10;1.10;;;;;;;-2.66;72.72;97393.19;5011132;28;20117;-70
2023/12/04 10:10:51;;;;;;;1.05;1.05;;;;;;;-2.63;72.72;97388.56;5009576;28;20041;-70
2023/12/04 10:13:19;;;;;;;1.05;1.05;;;;;;;-2.61;71.95;97384.06;5009298;28;20042;-70
2023/12/04 10:16:07;;;;;;;0.80;0.80;;;;;;;-2.59;72.32;97374.28;5008356;28;20046;-71
2023/12/04 10:18:35;;;;;;;0.93;0.93;;;;;;;-2.55;72.11;97374.91;5009579;28;20104;-70
2023/12/04 10:21:03;;;;;;;1.35;1.35;;;;;;;-2.46;73.13;97353.28;5009258;28;20152;-71
2023/12/04 10:23:40;;;;;;;0.85;0.85;;;;;;;-2.36;72.12;97346.38;4991371;28;20100;-70
2023/12/04 10:26:08;;;;;;;1.30;1.30;;;;;;;-2.35;71.91;97342.00;5008807;28;20049;-70
2023/12/04 10:28:36;;;;;;;1.15;1.15;;;;;;;-2.30;71.93;97332.84;5011674;28;20045;-70
2023/12/04 10:31:06;;;;;;;0.82;0.82;;;;;;;-2.33;72.22;97329.66;5014538;28;20045;-70
2023/12/04 10:33:35;;;;;;;0.95;0.95;;;;;;;-2.26;71.35;97330.81;5020063;28;20069;-70
2023/12/04 10:36:04;;;;;;;1.05;1.05;;;;;;;-2.25;71.50;97316.78;5015078;28;20056;-70
2023/12/04 10:38:31;;;;;;;0.95;0.95;;;;;;;-2.24;71.59;97316.69;5013537;28;20123;-70
2023/12/04 10:41:12;;;;;;;1.20;1.20;;;;;;;-2.19;71.55;97316.31;5012077;28;20129;-71
2023/12/04 10:43:47;;;;;;;1.15;1.15;;;;;;;-2.15;71.42;97320.34;5011572;28;20506;-70
2023/12/04 10:46:25;;;;;;;0.30;0.30;;;;;;;-2.06;70.82;97318.75;4996048;28;20478;-70
2023/12/04 10:48:52;;;;;;;1.23;1.23;;;;;;;-1.95;71.11;97310.88;5015774;28;20048;-70
2023/12/04 10:51:21;;;;;;;0.82;0.40;;;;;;;-1.91;70.91;97312.31;5017197;28;20411;-69
2023/12/04 10:53:49;;;;;;;1.25;1.25;;;;;;;-1.94;71.15;97320.38;5016566;28;20165;-72
2023/12/04 10:56:21;;;;;;;1.23;1.23;;;;;;;-1.91;71.62;97310.53;5017460;28;20125;-71
2023/12/04 10:58:50;;;;;;;1.58;1.58;;;;;;;-1.88;71.40;97312.91;4999475;28;20040;-71
2023/12/04 11:01:19;;;;;;;0.90;0.90;;;;;;;-1.75;71.07;97307.47;5014625;28;20056;-71
2023/12/04 11:03:49;;;;;;;1.05;1.05;;;;;;;-1.64;70.96;97303.97;5012369;28;20376;-71
2023/12/04 11:06:17;;;;;;;1.23;1.23;;;;;;;-1.48;70.68;97300.00;5013445;28;20046;-71
2023/12/04 11:08:50;;;;;;;1.05;1.05;;;;;;;-1.47;70.20;97290.34;5013104;28;20056;-71
2023/12/04 11:11:21;;;;;;;;;;;;;;;-1.43;69.74;97296.97;4995677;28;20054;-71
2023/12/04 11:13:50;;;;;;;0.93;0.93;;;;;;;-1.41;68.87;97291.63;5012211;28;19926;-73
2023/12/04 11:16:23;;;;;;;1.00;1.00;;;;;;;-1.34;69.47;97285.72;5012765;28;20116;-71
2023/12/04 11:18:54;;;;;;;0.93;0.93;;;;;;;-1.26;68.41;97299.03;5012458;28;20042;-71
2023/12/04 11:21:21;;;;;;;0.32;0.32;;;;;;;-1.31;68.17;97295.13;5012036;28;20403;-71
2023/12/04 11:23:49;;;;;;;0.77;0.77;;;;;;;-1.27;68.54;97294.75;5014299;28;20503;-71
2023/12/04 11:26:17;;;;;;;1.30;1.30;;;;;;;-1.31;68.53;97287.28;5020292;28;20073;-71
2023/12/04 11:28:46;;;;;;;0.40;0.40;;;;;;;-1.34;68.66;97290.97;5001736;28;20422;-72
2023/12/04 11:31:14;;;;;;;1.20;1.20;;;;;;;-1.29;68.34;97280.13;5015867;28;20045;-71
2023/12/04 11:33:42;;;;;;;1.17;1.17;;;;;;;-1.34;69.07;97284.91;5012828;28;20045;-71
2023/12/04 11:36:11;;;;;;;1.25;1.25;;;;;;;-1.36;69.00;97277.19;5011785;28;20481;-71
2023/12/04 11:38:44;;;;;;;1.27;1.27;;;;;;;-1.34;68.81;97277.88;5011850;28;20049;-71
2023/12/04 11:41:16;;;;;;;0.80;0.80;;;;;;;-1.31;68.80;97276.81;5011659;28;20458;-71